sensor_id;sensor_type;location;lat;lon;timestamp;P1;durP1;ratioP1;P2;durP2;ratioP2
39308;SDS011;26019;47.510;19.122;2023-02-22T00:10:01;506.67;;;335.80;;
39308;SDS011;26019;47.510;19.122;2023-02-22T00:20:03;335.15;;;214.32;;
39308;SDS011;26019;47.510;19.122;2023-02-22T00:30:08;70.72;;;30.27;;
39308;SDS011;26019;47.510;19.122;2023-02-22T00:40:26;85.88;;;47.22;;
39308;SDS011;26019;47.510;19.122;2023-02-22T00:50:33;53.17;;;24.90;;
39308;SDS011;26019;47.510;19.122;2023-02-22T01:00:37;77.75;;;33.72;;
39308;SDS011;26019;47.510;19.122;2023-02-22T01:10:40;78.85;;;43.20;;
39308;SDS011;26019;47.510;19.122;2023-02-22T01:20:47;25.08;;;15.02;;
39308;SDS011;26019;47.510;19.122;2023-02-22T01:30:49;20.45;;;11.13;;
39308;SDS011;26019;47.510;19.122;2023-02-22T01:51:15;16.50;;;5.10;;
39308;SDS011;26019;47.510;19.122;2023-02-22T02:01:20;55.80;;;21.05;;
39308;SDS011;26019;47.510;19.122;2023-02-22T02:31:58;24.17;;;5.65;;
39308;SDS011;26019;47.510;19.122;2023-02-22T02:42:06;272.63;;;177.23;;
39308;SDS011;26019;47.510;19.122;2023-02-22T02:52:12;22.10;;;5.90;;
39308;SDS011;26019;47.510;19.122;2023-02-22T03:12:52;22.40;;;6.00;;
39308;SDS011;26019;47.510;19.122;2023-02-22T03:23:09;25.55;;;6.10;;
39308;SDS011;26019;47.510;19.122;2023-02-22T03:33:18;81.53;;;30.33;;
39308;SDS011;26019;47.510;19.122;2023-02-22T03:53:45;15.77;;;5.45;;
39308;SDS011;26019;47.510;19.122;2023-02-22T04:03:48;78.33;;;31.70;;
39308;SDS011;26019;47.510;19.122;2023-02-22T04:13:50;501.40;;;277.95;;
39308;SDS011;26019;47.510;19.122;2023-02-22T04:23:58;550.65;;;389.23;;
39308;SDS011;26019;47.510;19.122;2023-02-22T04:34:01;489.65;;;279.63;;
39308;SDS011;26019;47.510;19.122;2023-02-22T04:44:04;537.92;;;361.15;;
39308;SDS011;26019;47.510;19.122;2023-02-22T04:54:06;479.50;;;253.82;;
39308;SDS011;26019;47.510;19.122;2023-02-22T05:04:08;464.02;;;234.43;;
39308;SDS011;26019;47.510;19.122;2023-02-22T05:14:10;446.40;;;234.25;;
39308;SDS011;26019;47.510;19.122;2023-02-22T05:24:12;479.17;;;233.57;;
39308;SDS011;26019;47.510;19.122;2023-02-22T05:34:15;508.33;;;243.32;;
39308;SDS011;26019;47.510;19.122;2023-02-22T05:44:20;500.33;;;261.73;;
39308;SDS011;26019;47.510;19.122;2023-02-22T05:54:23;24.38;;;10.18;;
39308;SDS011;26019;47.510;19.122;2023-02-22T06:04:25;41.93;;;11.63;;
39308;SDS011;26019;47.510;19.122;2023-02-22T06:14:28;29.63;;;9.30;;
39308;SDS011;26019;47.510;19.122;2023-02-22T06:24:30;31.43;;;10.43;;
39308;SDS011;26019;47.510;19.122;2023-02-22T06:34:38;34.45;;;11.77;;
39308;SDS011;26019;47.510;19.122;2023-02-22T06:44:41;27.00;;;9.07;;
39308;SDS011;26019;47.510;19.122;2023-02-22T06:54:43;25.08;;;9.40;;
39308;SDS011;26019;47.510;19.122;2023-02-22T07:04:45;34.83;;;9.85;;
39308;SDS011;26019;47.510;19.122;2023-02-22T07:14:47;28.02;;;8.32;;
39308;SDS011;26019;47.510;19.122;2023-02-22T07:24:52;20.57;;;8.13;;
39308;SDS011;26019;47.510;19.122;2023-02-22T07:34:57;29.90;;;8.25;;
39308;SDS011;26019;47.510;19.122;2023-02-22T07:44:59;526.30;;;393.05;;
39308;SDS011;26019;47.510;19.122;2023-02-22T07:55:01;402.35;;;300.73;;
39308;SDS011;26019;47.510;19.122;2023-02-22T08:05:04;489.63;;;287.58;;
39308;SDS011;26019;47.510;19.122;2023-02-22T08:15:07;501.25;;;289.15;;
39308;SDS011;26019;47.510;19.122;2023-02-22T08:25:15;519.65;;;347.35;;
39308;SDS011;26019;47.510;19.122;2023-02-22T08:35:19;520.20;;;379.42;;
39308;SDS011;26019;47.510;19.122;2023-02-22T08:45:22;523.30;;;420.30;;
39308;SDS011;26019;47.510;19.122;2023-02-22T08:55:26;558.13;;;442.63;;
39308;SDS011;26019;47.510;19.122;2023-02-22T09:05:31;545.85;;;452.77;;
39308;SDS011;26019;47.510;19.122;2023-02-22T09:15:35;554.63;;;469.00;;
39308;SDS011;26019;47.510;19.122;2023-02-22T09:25:37;549.13;;;435.17;;
39308;SDS011;26019;47.510;19.122;2023-02-22T09:35:41;543.80;;;426.65;;
39308;SDS011;26019;47.510;19.122;2023-02-22T09:46:08;557.42;;;478.95;;
39308;SDS011;26019;47.510;19.122;2023-02-22T09:56:35;564.92;;;502.98;;
39308;SDS011;26019;47.510;19.122;2023-02-22T10:06:41;273.67;;;248.07;;
39308;SDS011;26019;47.510;19.122;2023-02-22T10:27:20;573.28;;;517.72;;
39308;SDS011;26019;47.510;19.122;2023-02-22T10:37:33;568.42;;;509.27;;
39308;SDS011;26019;47.510;19.122;2023-02-22T10:47:36;520.03;;;428.08;;
39308;SDS011;26019;47.510;19.122;2023-02-22T10:57:39;519.83;;;422.80;;
39308;SDS011;26019;47.510;19.122;2023-02-22T11:07:42;553.17;;;451.02;;
39308;SDS011;26019;47.510;19.122;2023-02-22T11:17:45;533.72;;;400.20;;
39308;SDS011;26019;47.510;19.122;2023-02-22T11:27:49;570.25;;;411.13;;
39308;SDS011;26019;47.510;19.122;2023-02-22T11:37:53;518.45;;;343.33;;
39308;SDS011;26019;47.510;19.122;2023-02-22T11:48:17;498.52;;;350.60;;
39308;SDS011;26019;47.510;19.122;2023-02-22T12:09:04;528.65;;;356.20;;
39308;SDS011;26019;47.510;19.122;2023-02-22T12:19:26;523.40;;;369.70;;
39308;SDS011;26019;47.510;19.122;2023-02-22T12:29:42;45.67;;;27.25;;
39308;SDS011;26019;47.510;19.122;2023-02-22T12:50:16;51.67;;;14.43;;
39308;SDS011;26019;47.510;19.122;2023-02-22T13:00:43;64.53;;;14.95;;
39308;SDS011;26019;47.510;19.122;2023-02-22T13:42:01;517.90;;;353.55;;
39308;SDS011;26019;47.510;19.122;2023-02-22T13:52:10;538.42;;;372.67;;
39308;SDS011;26019;47.510;19.122;2023-02-22T14:13:06;522.92;;;376.40;;
39308;SDS011;26019;47.510;19.122;2023-02-22T14:34:00;542.03;;;355.88;;
39308;SDS011;26019;47.510;19.122;2023-02-22T14:44:10;472.17;;;324.42;;
39308;SDS011;26019;47.510;19.122;2023-02-22T15:05:02;550.10;;;381.20;;
39308;SDS011;26019;47.510;19.122;2023-02-22T15:15:10;146.07;;;72.20;;
39308;SDS011;26019;47.510;19.122;2023-02-22T15:25:22;117.72;;;81.30;;
39308;SDS011;26019;47.510;19.122;2023-02-22T15:35:27;26.55;;;11.02;;
39308;SDS011;26019;47.510;19.122;2023-02-22T15:45:35;41.08;;;12.40;;
39308;SDS011;26019;47.510;19.122;2023-02-22T15:55:44;35.03;;;11.75;;
39308;SDS011;26019;47.510;19.122;2023-02-22T16:05:50;59.40;;;16.10;;
39308;SDS011;26019;47.510;19.122;2023-02-22T16:37:05;97.73;;;69.57;;
39308;SDS011;26019;47.510;19.122;2023-02-22T17:28:29;240.23;;;187.13;;
39308;SDS011;26019;47.510;19.122;2023-02-22T17:38:33;102.07;;;64.70;;
39308;SDS011;26019;47.510;19.122;2023-02-22T18:08:57;314.80;;;257.17;;
39308;SDS011;26019;47.510;19.122;2023-02-22T18:19:01;366.77;;;274.35;;
39308;SDS011;26019;47.510;19.122;2023-02-22T18:29:05;537.80;;;348.13;;
39308;SDS011;26019;47.510;19.122;2023-02-22T18:39:09;280.93;;;209.50;;
39308;SDS011;26019;47.510;19.122;2023-02-22T18:49:12;18.05;;;6.50;;
39308;SDS011;26019;47.510;19.122;2023-02-22T18:59:15;25.77;;;7.47;;
39308;SDS011;26019;47.510;19.122;2023-02-22T19:09:20;35.00;;;8.13;;
39308;SDS011;26019;47.510;19.122;2023-02-22T19:19:30;30.75;;;7.95;;
39308;SDS011;26019;47.510;19.122;2023-02-22T19:29:34;25.55;;;8.32;;
39308;SDS011;26019;47.510;19.122;2023-02-22T19:49:55;36.55;;;9.75;;
39308;SDS011;26019;47.510;19.122;2023-02-22T20:00:00;35.15;;;10.00;;
39308;SDS011;26019;47.510;19.122;2023-02-22T20:10:14;40.15;;;10.20;;
39308;SDS011;26019;47.510;19.122;2023-02-22T20:20:17;36.53;;;9.55;;
39308;SDS011;26019;47.510;19.122;2023-02-22T20:30:29;27.05;;;9.25;;
39308;SDS011;26019;47.510;19.122;2023-02-22T20:40:40;33.38;;;9.48;;
39308;SDS011;26019;47.510;19.122;2023-02-22T20:50:44;27.80;;;8.73;;
39308;SDS011;26019;47.510;19.122;2023-02-22T21:00:47;26.83;;;9.13;;
39308;SDS011;26019;47.510;19.122;2023-02-22T21:21:02;32.13;;;8.57;;
39308;SDS011;26019;47.510;19.122;2023-02-22T21:31:12;47.28;;;16.90;;
39308;SDS011;26019;47.510;19.122;2023-02-22T21:51:34;113.82;;;60.25;;
39308;SDS011;26019;47.510;19.122;2023-02-22T22:01:42;97.38;;;66.32;;
39308;SDS011;26019;47.510;19.122;2023-02-22T22:11:51;73.72;;;32.78;;
39308;SDS011;26019;47.510;19.122;2023-02-22T22:21:56;71.55;;;39.50;;
39308;SDS011;26019;47.510;19.122;2023-02-22T22:32:03;109.00;;;60.78;;
39308;SDS011;26019;47.510;19.122;2023-02-22T22:42:11;112.60;;;78.38;;
39308;SDS011;26019;47.510;19.122;2023-02-22T22:52:14;137.35;;;117.45;;
39308;SDS011;26019;47.510;19.122;2023-02-22T23:02:16;171.50;;;148.27;;
39308;SDS011;26019;47.510;19.122;2023-02-22T23:12:25;139.48;;;114.70;;
39308;SDS011;26019;47.510;19.122;2023-02-22T23:22:31;342.55;;;230.27;;
39308;SDS011;26019;47.510;19.122;2023-02-22T23:32:33;404.33;;;245.32;;
39308;SDS011;26019;47.510;19.122;2023-02-22T23:52:42;209.95;;;158.65;;
